Airfield :
LOGIN :

Register | Disclaimer

   EN    FR    IT 

 










Legend :    VFR   Marginal VFR   IFR   Intensive IFR   Very Intensive IFR
Visi :
Ceiling :
>= 8 km
>= 3000ft
5 to 8 km
1000 to 3000 ft
1500m to 5 km
500 to 1000 ft
800 to 1500m
200 to 500 ft
< 800m
< 200 ft
Symbols :   Thunderstorms  Fog  Heavy snow  Heavy precipitations  Wind > 20 kt
SIGMETs :     Misc.  Thunderstorms  Icing  Turbulence  Mountain Waves  Volcanic Ashes







- Airport Elevation : 164 ft
- IATA code : VBY


ESSV - Visby

CURRENT METAR :
  • 190450Z 19011KT 4000 BR NSC 03/02 Q1005 R21/19//64

EXPIRED METARs :
  • 190420Z AUTO 19009KT 2100 BR NCD 03/02 Q1005
  • 190350Z AUTO 19008KT 1700 BR NCD 03/02 Q1006
  • 190320Z AUTO 19008KT 1600 BR NCD 02/02 Q1006
  • 190250Z AUTO 19008KT 2100 BR NCD 03/02 Q1007
  • 190220Z AUTO 19008KT 2800 BR NCD 03/03 Q1007

TAF TAF ESSV
Valid from the 19 at 04:00 until the 19 at 12:00 UTC


190300Z 1904/1912 21013KT 1400 BR OVC003
PROB40 1904/1912 5000 SCT005
No reported NOTAMs for that airfield.



MET'MAP, your aeronautical weather chart ! - Copyright ORBIFLY December 2007 - Disclaimer

ORBIFLY MET'MAP TEAM :

Programming & Development : Alexandra Zaïnal
Concept & Development : Baudouin d'Aumeries
Co-Development & Prog : Marc-Olivier Méhu
Technical & hardware support : Manuel Goepfert

Contact : metmap@orbifly.com




SOURCES & CREDITS :

   NOAA